Cherdyn, Russia
Current Conditions -  °F | °C
As of 12:00 PM on Friday 19 Dec 2014 (Local Time) from USPP Reporting Station
Overcast Overcast  
Wind Chill: 15°   Ceiling: 1600
Heat Index: 25°   Visibility: 6mi
Dew Point: 21°   Wind: 9mph
Humidity: 86%   Direction: 210°SSW
Pressure: 29.91"   Gusts: NA
Location:  60.4°N, 56.48°E
Report Text: USPP 190700Z 21004MPS 9999 BKN016 OVC070 M04/M06 Q1013 21590332NOSIG RMK QFE749/0999 MOD ICE INC 750-1700
Loading
Personal Weather Stations






























Interactive Weather Map New forecast layout! Learn more

10-Day Weather Forecast

Advertisements
Track Severe Weather on mobile